Hartness State (Springfield) Airport

About
Name: Hartness State (Springfield) Airport
Identifier:  VSF/KVSF
Local Time:  23. Aug 01:43 EDT
Location
Springfield
  United States

Flights per Day
0 flights
Distance: 769km (478mi)
Punctuality
0% (0 flights per day delayed)
Delay Average: 28 minutes
Current Weather
 15 C (Humidity: 93%)
  0kt (0km/h / 0mph) from 0°
  16km (10 mi.)
 
 METAR KVSF 230454Z AUTO 00000KT 10SM CLR 15/14 A2994 RMK AO2 SLP138 T01500139 402890150

Current Flights

Departures
Number Departure To Airline
Arrivals
Number Arrival From Airline

Current Delays

Departures
N/A
Arrivals
N/A

Destinations

Top Destinations
Airport Flights
per week
Seats
per week
  Caldwell (CDW) 0 - 0 0
  Boston (BOS) 0 - 0 0
  White Plains (HPN) 0 - 0 0
  Burlington (BTV) 0 - 0 0
  Columbus (CMH) 0 - 0 0
  Farmingdale (FRG) 0 - 0 0
  Newport News (PHF) 0 - 0 0
  Staunton (SHD) 0 - 0 0

Airlines & Planes

Top Airlines
Airline Flights
per Day
Seats
per Day
Gama Aviation 0 -
  Nolinor Aviation 0 -
Jet Charter Inc ( Franklin Lakes Nj ) 0 -
  Flybe Nordic 0 -
  Novair 0 -
Top Plane Types
Model Flights Seats
Beech B300 Super King Air 350 0.2/day - 0
Cessna C25C 0.1/day - 0
Cessna C172 0.1/day - 0